Station Historical Data
Daily Summary for January 24, 2012 Units:  English    Metric   Both
« Previous Day
Next Day »
Daily Weekly Monthly Yearly Custom
  High: Low: Average:
Temperature: 58.6 °F 34.5 °F 46.4 °F
Dew Point: 40.2 °F 31.4 °F 35.1 °F
Humidity: 96% 37% 68%
Wind Speed: 7.0mph 0.0mph 1.7mph
Wind Gust: 10.0mph - -
Wind- - SE
Pressure: 30.27 in 30.06 in -
Precipitation: 0.00 in    
Historical Graphs
 
 
Tabular Data for January 24, 2012
Time Temperature Dew Point Pressure Wind Wind Speed Wind Gust Humidity Rainfall Rate (Hourly) Conditions
00:00 42.2 °F 37.4 °F 30.06 in Calm   2.0 mph 83% 0.00 in
00:02 42.3 °F 37.5 °F 30.07 in WNW 1.0 mph 1.0 mph 83% 0.00 in
00:07 42.3 °F 37.5 °F 30.07 in Calm   1.0 mph 83% 0.00 in
00:12 42.4 °F 37.3 °F 30.07 in Calm   1.0 mph 82% 0.00 in
00:17 42.4 °F 37.3 °F 30.07 in Calm   1.0 mph 82% 0.00 in
00:22 42.4 °F 37.3 °F 30.07 in Calm   1.0 mph 82% 0.00 in
00:27 42.2 °F 37.1 °F 30.07 in WNW 1.0 mph 1.0 mph 82% 0.00 in
00:32 42.3 °F 37.2 °F 30.07 in WNW 2.0 mph 2.0 mph 82% 0.00 in
00:37 42.3 °F 37.2 °F 30.07 in WNW 3.0 mph 3.0 mph 82% 0.00 in
00:42 42.3 °F 36.9 °F 30.07 in WNW 2.0 mph 3.0 mph 81% 0.00 in
00:48 42.3 °F 36.9 °F 30.07 in WNW 1.0 mph 2.0 mph 81% 0.00 in
00:53 42.1 °F 37.0 °F 30.07 in WNW 1.0 mph 1.0 mph 82% 0.00 in
00:58 42.0 °F 36.9 °F 30.08 in WNW 1.0 mph 1.0 mph 82% 0.00 in
01:03 42.0 °F 36.9 °F 30.08 in WNW 1.0 mph 1.0 mph 82% 0.00 in
01:08 42.0 °F 36.9 °F 30.08 in WNW 1.0 mph 1.0 mph 82% 0.00 in
01:13 42.0 °F 36.9 °F 30.08 in Calm   1.0 mph 82% 0.00 in
01:18 41.9 °F 36.8 °F 30.08 in Calm   1.0 mph 82% 0.00 in
01:23 41.7 °F 36.6 °F 30.08 in Calm     82% 0.00 in
01:28 41.6 °F 36.5 °F 30.09 in Calm     82% 0.00 in
01:33 41.5 °F 36.7 °F 30.09 in Calm     83% 0.00 in
01:38 41.4 °F 36.6 °F 30.09 in Calm     83% 0.00 in
01:43 41.2 °F 36.4 °F 30.09 in Calm     83% 0.00 in
01:48 41.0 °F 36.5 °F 30.09 in Calm     84% 0.00 in
01:53 40.8 °F 36.3 °F 30.10 in Calm     84% 0.00 in
01:58 40.4 °F 36.3 °F 30.10 in Calm     85% 0.00 in
02:03 40.2 °F 36.1 °F 30.10 in Calm     85% 0.00 in
02:08 39.9 °F 36.1 °F 30.10 in Calm     86% 0.00 in
02:13 39.5 °F 35.7 °F 30.11 in Calm     86% 0.00 in
02:18 39.3 °F 35.8 °F 30.11 in Calm     87% 0.00 in
02:23 39.3 °F 36.0 °F 30.11 in Calm   1.0 mph 88% 0.00 in
02:28 39.3 °F 36.0 °F 30.11 in Calm   1.0 mph 88% 0.00 in
02:33 39.3 °F 36.0 °F 30.11 in Calm     88% 0.00 in
02:38 39.4 °F 36.2 °F 30.11 in Calm     88% 0.00 in
02:43 39.4 °F 36.2 °F 30.11 in Calm     88% 0.00 in
02:48 39.6 °F 36.3 °F 30.11 in Calm     88% 0.00 in
02:53 39.6 °F 36.1 °F 30.11 in Calm     87% 0.00 in
02:58 39.7 °F 36.2 °F 30.11 in Calm     87% 0.00 in
03:03 39.6 °F 36.1 °F 30.12 in Calm     87% 0.00 in
03:08 39.1 °F 35.6 °F 30.12 in Calm     87% 0.00 in
03:13 38.6 °F 35.4 °F 30.12 in Calm     88% 0.00 in
03:18 38.0 °F 35.0 °F 30.12 in Calm     89% 0.00 in
03:23 37.5 °F 34.8 °F 30.13 in Calm   1.0 mph 90% 0.00 in
03:28 37.0 °F 34.6 °F 30.13 in SSE 2.0 mph 2.0 mph 91% 0.00 in
03:33 36.6 °F 34.5 °F 30.13 in SSE 2.0 mph 2.0 mph 92% 0.00 in
03:38 36.6 °F 34.8 °F 30.13 in SSE 1.0 mph 2.0 mph 93% 0.00 in
03:43 36.7 °F 34.9 °F 30.13 in SSE 1.0 mph 1.0 mph 93% 0.00 in
03:48 36.7 °F 34.9 °F 30.13 in Calm     93% 0.00 in
03:53 36.4 °F 34.6 °F 30.13 in Calm     93% 0.00 in
03:58 36.1 °F 34.3 °F 30.13 in Calm     93% 0.00 in
04:03 35.9 °F 34.3 °F 30.13 in Calm     94% 0.00 in
04:08 35.5 °F 33.7 °F 30.13 in Calm     93% 0.00 in
04:13 35.4 °F 33.8 °F 30.13 in Calm     94% 0.00 in
04:18 35.3 °F 34.0 °F 30.13 in SSE 1.0 mph 1.0 mph 95% 0.00 in
04:23 35.6 °F 34.3 °F 30.13 in Calm   1.0 mph 95% 0.00 in
04:28 35.9 °F 34.6 °F 30.13 in Calm     95% 0.00 in
04:33 35.9 °F 34.6 °F 30.13 in Calm     95% 0.00 in
04:38 35.7 °F 34.4 °F 30.13 in Calm     95% 0.00 in
04:43 35.7 °F 34.4 °F 30.13 in Calm     95% 0.00 in
04:48 35.7 °F 34.4 °F 30.13 in Calm     95% 0.00 in
04:53 35.5 °F 34.2 °F 30.13 in Calm     95% 0.00 in
04:58 35.5 °F 34.2 °F 30.13 in Calm     95% 0.00 in
05:03 35.4 °F 34.1 °F 30.14 in Calm     95% 0.00 in
05:08 35.7 °F 34.7 °F 30.14 in Calm     96% 0.00 in
05:13 36.1 °F 35.1 °F 30.14 in Calm     96% 0.00 in
05:18 36.4 °F 35.4 °F 30.14 in SSE 1.0 mph 1.0 mph 96% 0.00 in
05:23 36.8 °F 35.5 °F 30.14 in Calm     95% 0.00 in
05:28 36.8 °F 35.2 °F 30.14 in Calm     94% 0.00 in
05:33 36.8 °F 35.2 °F 30.14 in Calm     94% 0.00 in
05:38 36.9 °F 35.3 °F 30.14 in Calm     94% 0.00 in
05:44 37.1 °F 35.3 °F 30.15 in Calm     93% 0.00 in
05:49 37.2 °F 35.4 °F 30.15 in Calm     93% 0.00 in
05:54 37.1 °F 35.3 °F 30.15 in Calm     93% 0.00 in
05:59 37.2 °F 35.4 °F 30.16 in Calm     93% 0.00 in
06:04 37.0 °F 35.2 °F 30.16 in Calm     93% 0.00 in
06:09 37.0 °F 34.9 °F 30.16 in Calm   1.0 mph 92% 0.00 in
06:14 36.9 °F 34.8 °F 30.16 in WNW 1.0 mph 1.0 mph 92% 0.00 in
06:19 37.1 °F 35.0 °F 30.16 in NW 1.0 mph 2.0 mph 92% 0.00 in
06:24 37.3 °F 35.2 °F 30.16 in NNW 1.0 mph 2.0 mph 92% 0.00 in
06:29 37.4 °F 35.0 °F 30.16 in NNW 1.0 mph 2.0 mph 91% 0.00 in
06:34 37.4 °F 35.0 °F 30.16 in NNW 1.0 mph 1.0 mph 91% 0.00 in
06:39 37.3 °F 34.9 °F 30.16 in Calm     91% 0.00 in
06:44 37.2 °F 34.8 °F 30.16 in Calm     91% 0.00 in
06:49 37.3 °F 34.9 °F 30.16 in Calm     91% 0.00 in
06:54 37.3 °F 34.9 °F 30.17 in Calm   1.0 mph 91% 0.00 in
06:59 37.3 °F 34.6 °F 30.17 in Calm   1.0 mph 90% 0.00 in
07:04 37.1 °F 34.4 °F 30.17 in Calm     90% 0.00 in
07:09 36.6 °F 34.2 °F 30.18 in Calm     91% 0.00 in
07:14 36.3 °F 33.9 °F 30.18 in Calm     91% 0.00 in
07:19 35.9 °F 33.8 °F 30.18 in Calm     92% 0.00 in
07:24 35.7 °F 33.9 °F 30.18 in Calm     93% 0.00 in
07:29 35.4 °F 33.6 °F 30.18 in Calm     93% 0.00 in
07:34 34.9 °F 33.1 °F 30.19 in Calm     93% 0.00 in
07:39 34.6 °F 33.0 °F 30.19 in Calm     94% 0.00 in
07:44 34.8 °F 33.5 °F 30.19 in Calm     95% 0.00 in
07:49 34.5 °F 33.0 °F 30.19 in Calm     94% 0.00 in
07:54 34.5 °F 33.2 °F 30.19 in Calm     95% 0.00 in
08:00 34.5 °F 33.2 °F 30.20 in Calm     95% 0.00 in
08:05 34.5 °F 33.2 °F 30.20 in Calm     95% 0.00 in
08:10 34.6 °F 33.3 °F 30.20 in Calm     95% 0.00 in
08:15 35.2 °F 33.9 °F 30.20 in Calm     95% 0.00 in
08:20 36.0 °F 34.7 °F 30.20 in Calm     95% 0.00 in
08:25 37.2 °F 35.9 °F 30.21 in Calm     95% 0.00 in
08:30 38.2 °F 36.1 °F 30.21 in Calm     92% 0.00 in
08:35 39.2 °F 36.8 °F 30.21 in Calm     91% 0.00 in
08:40 40.9 °F 38.2 °F 30.22 in Calm     90% 0.00 in
08:45 40.9 °F 37.0 °F 30.22 in Calm     86% 0.00 in
08:50 40.3 °F 36.2 °F 30.22 in Calm     85% 0.00 in
08:55 39.7 °F 35.9 °F 30.22 in Calm     86% 0.00 in
08:56 39.7 °F 35.9 °F 30.22 in Calm     86% 0.00 in
09:01 39.6 °F 36.1 °F 30.23 in Calm     87% 0.00 in
09:06 40.0 °F 36.7 °F 30.23 in Calm     88% 0.00 in
09:11 40.7 °F 37.4 °F 30.23 in Calm     88% 0.00 in
09:16 41.3 °F 37.4 °F 30.23 in Calm     86% 0.00 in
09:21 41.5 °F 37.3 °F 30.23 in Calm     85% 0.00 in
09:26 41.6 °F 36.8 °F 30.23 in NW 1.0 mph 1.0 mph 83% 0.00 in
09:31 41.9 °F 37.4 °F 30.24 in NW 1.0 mph 1.0 mph 84% 0.00 in
09:36 42.4 °F 37.9 °F 30.24 in NW 1.0 mph 2.0 mph 84% 0.00 in
09:41 42.8 °F 38.0 °F 30.24 in NW 2.0 mph 3.0 mph 83% 0.00 in
09:46 43.2 °F 38.1 °F 30.24 in NNW 2.0 mph 3.0 mph 82% 0.00 in
09:51 43.7 °F 38.6 °F 30.24 in NNW 2.0 mph 3.0 mph 82% 0.00 in
09:56 44.3 °F 39.2 °F 30.25 in North 2.0 mph 3.0 mph 82% 0.00 in
10:01 45.0 °F 39.2 °F 30.25 in North 3.0 mph 3.0 mph 80% 0.00 in
10:06 45.6 °F 39.2 °F 30.25 in NNW 2.0 mph 4.0 mph 78% 0.00 in
10:11 46.2 °F 39.7 °F 30.25 in NNW 1.0 mph 3.0 mph 78% 0.00 in
10:16 46.8 °F 40.0 °F 30.25 in NNW 2.0 mph 3.0 mph 77% 0.00 in
10:21 47.4 °F 40.2 °F 30.25 in NNE 4.0 mph 5.0 mph 76% 0.00 in
10:26 47.9 °F 39.7 °F 30.25 in NE 2.0 mph 3.0 mph 73% 0.00 in
10:31 48.2 °F 38.2 °F 30.26 in NNE 4.0 mph 6.0 mph 68% 0.00 in
10:36 48.5 °F 38.8 °F 30.26 in North 3.0 mph 5.0 mph 69% 0.00 in
10:41 48.9 °F 39.2 °F 30.26 in NNE 5.0 mph 5.0 mph 69% 0.00 in
10:46 49.3 °F 38.4 °F 30.26 in NNE 4.0 mph 5.0 mph 66% 0.00 in
10:51 49.6 °F 38.3 °F 30.26 in NNW 2.0 mph 6.0 mph 65% 0.00 in
10:56 49.6 °F 37.9 °F 30.26 in NNE 4.0 mph 6.0 mph 64% 0.00 in
11:02 49.8 °F 38.1 °F 30.26 in North 4.0 mph 7.0 mph 64% 0.00 in
11:07 50.3 °F 38.6 °F 30.26 in NE 5.0 mph 7.0 mph 64% 0.00 in
11:12 50.4 °F 38.7 °F 30.26 in NW 3.0 mph 6.0 mph 64% 0.00 in
11:17 50.8 °F 38.7 °F 30.26 in NNE 5.0 mph 6.0 mph 63% 0.00 in
11:22 51.1 °F 38.5 °F 30.26 in NNE 5.0 mph 8.0 mph 62% 0.00 in
11:27 51.3 °F 36.2 °F 30.25 in NNE 4.0 mph 8.0 mph 56% 0.00 in
11:32 51.3 °F 36.2 °F 30.26 in NE 5.0 mph 7.0 mph 56% 0.00 in
11:37 51.3 °F 35.7 °F 30.25 in NNE 7.0 mph 9.0 mph 55% 0.00 in
11:42 51.3 °F 35.7 °F 30.25 in NNE 5.0 mph 7.0 mph 55% 0.00 in
11:47 51.5 °F 35.0 °F 30.25 in ESE 3.0 mph 7.0 mph 53% 0.00 in
11:52 51.7 °F 36.5 °F 30.25 in NE 5.0 mph 7.0 mph 56% 0.00 in
11:57 52.1 °F 34.5 °F 30.25 in North 6.0 mph 7.0 mph 51% 0.00 in
12:02 52.5 °F 35.9 °F 30.25 in ENE 3.0 mph 7.0 mph 53% 0.00 in
12:07 52.9 °F 36.2 °F 30.25 in NNW 6.0 mph 7.0 mph 53% 0.00 in
12:12 53.2 °F 34.5 °F 30.26 in North 4.0 mph 6.0 mph 49% 0.00 in
12:17 53.3 °F 34.7 °F 30.25 in Calm   5.0 mph 49% 0.00 in
12:22 53.5 °F 35.3 °F 30.25 in NNW 6.0 mph 7.0 mph 50% 0.00 in
12:27 53.5 °F 34.8 °F 30.25 in NW 4.0 mph 4.0 mph 49% 0.00 in
12:32 53.8 °F 35.6 °F 30.25 in West 3.0 mph 5.0 mph 50% 0.00 in
12:37 54.1 °F 35.9 °F 30.25 in NNW 3.0 mph 3.0 mph 50% 0.00 in
12:42 54.2 °F 35.5 °F 30.24 in NNW 3.0 mph 7.0 mph 49% 0.00 in
12:47 54.4 °F 35.1 °F 30.24 in NW 5.0 mph 6.0 mph 48% 0.00 in
12:52 54.7 °F 35.9 °F 30.24 in North 2.0 mph 4.0 mph 49% 0.00 in
12:58 54.8 °F 35.5 °F 30.23 in NW 2.0 mph 5.0 mph 48% 0.00 in
13:03 54.7 °F 35.9 °F 30.23 in NW 3.0 mph 3.0 mph 49% 0.00 in
13:08 55.0 °F 35.7 °F 30.23 in North 2.0 mph 4.0 mph 48% 0.00 in
13:13 55.4 °F 37.6 °F 30.23 in East 1.0 mph 4.0 mph 51% 0.00 in
13:18 55.5 °F 36.2 °F 30.23 in Calm   3.0 mph 48% 0.00 in
13:23 55.9 °F 38.0 °F 30.22 in NE 3.0 mph 5.0 mph 51% 0.00 in
13:28 55.5 °F 35.6 °F 30.22 in NE 3.0 mph 6.0 mph 47% 0.00 in
13:33 55.3 °F 37.0 °F 30.22 in ENE 1.0 mph 3.0 mph 50% 0.00 in
13:38 55.4 °F 35.0 °F 30.22 in East 4.0 mph 7.0 mph 46% 0.00 in
13:43 55.5 °F 35.6 °F 30.22 in East 3.0 mph 5.0 mph 47% 0.00 in
13:48 55.8 °F 35.9 °F 30.22 in WNW 2.0 mph 4.0 mph 47% 0.00 in
13:53 56.7 °F 35.6 °F 30.22 in North 3.0 mph 7.0 mph 45% 0.00 in
13:58 56.6 °F 35.0 °F 30.22 in ENE 1.0 mph 7.0 mph 44% 0.00 in
14:03 56.4 °F 36.4 °F 30.22 in NE 4.0 mph 5.0 mph 47% 0.00 in
14:08 56.9 °F 37.4 °F 30.22 in NNE 1.0 mph 4.0 mph 48% 0.00 in
14:13 57.1 °F 35.4 °F 30.23 in West 1.0 mph 5.0 mph 44% 0.00 in
14:18 57.3 °F 36.2 °F 30.23 in NW 6.0 mph 7.0 mph 45% 0.00 in
14:23 57.4 °F 34.5 °F 30.22 in West 6.0 mph 9.0 mph 42% 0.00 in
14:28 57.3 °F 32.6 °F 30.22 in NW 3.0 mph 10.0 mph 39% 0.00 in
14:33 57.4 °F 33.9 °F 30.22 in NW 4.0 mph 6.0 mph 41% 0.00 in
14:38 57.5 °F 34.0 °F 30.22 in West 5.0 mph 8.0 mph 41% 0.00 in
14:43 57.4 °F 33.9 °F 30.22 in Calm   7.0 mph 41% 0.00 in
14:48 57.5 °F 33.4 °F 30.22 in NE 3.0 mph 8.0 mph 40% 0.00 in
14:53 57.8 °F 32.4 °F 30.22 in NW 3.0 mph 5.0 mph 38% 0.00 in
14:58 58.2 °F 32.1 °F 30.21 in NW 3.0 mph 8.0 mph 37% 0.00 in
15:03 58.2 °F 34.6 °F 30.21 in NNE 6.0 mph 7.0 mph 41% 0.00 in
15:08 58.2 °F 34.0 °F 30.21 in NW 4.0 mph 7.0 mph 40% 0.00 in
15:13 58.1 °F 33.9 °F 30.21 in West 2.0 mph 5.0 mph 40% 0.00 in
15:18 58.0 °F 33.2 °F 30.21 in NW 3.0 mph 6.0 mph 39% 0.00 in
15:23 58.3 °F 34.7 °F 30.21 in North 2.0 mph 5.0 mph 41% 0.00 in
15:28 58.1 °F 34.5 °F 30.20 in NNE 2.0 mph 6.0 mph 41% 0.00 in
15:33 58.1 °F 33.3 °F 30.21 in North 5.0 mph 6.0 mph 39% 0.00 in
15:38 58.3 °F 34.1 °F 30.20 in NNE 2.0 mph 6.0 mph 40% 0.00 in
15:44 58.4 °F 34.2 °F 30.21 in NW 3.0 mph 5.0 mph 40% 0.00 in
15:49 58.6 °F 34.4 °F 30.21 in North 2.0 mph 5.0 mph 40% 0.00 in
15:54 58.6 °F 34.4 °F 30.21 in North 1.0 mph 6.0 mph 40% 0.00 in
15:59 58.1 °F 33.9 °F 30.22 in NE 1.0 mph 4.0 mph 40% 0.00 in
16:04 58.2 °F 34.0 °F 30.22 in North 5.0 mph 6.0 mph 40% 0.00 in
16:09 58.5 °F 34.9 °F 30.22 in NNW 2.0 mph 5.0 mph 41% 0.00 in
16:14 58.4 °F 33.6 °F 30.22 in ENE 2.0 mph 7.0 mph 39% 0.00 in
16:19 58.2 °F 34.6 °F 30.22 in NE 5.0 mph 7.0 mph 41% 0.00 in
16:24 58.1 °F 35.2 °F 30.22 in NNE 3.0 mph 5.0 mph 42% 0.00 in
16:29 58.1 °F 33.9 °F 30.22 in NNE 3.0 mph 6.0 mph 40% 0.00 in
16:34 58.0 °F 33.8 °F 30.22 in NNE 4.0 mph 7.0 mph 40% 0.00 in
16:39 57.7 °F 32.9 °F 30.22 in NE 4.0 mph 6.0 mph 39% 0.00 in
16:44 57.5 °F 34.0 °F 30.21 in NNE 5.0 mph 7.0 mph 41% 0.00 in
16:49 57.4 °F 35.7 °F 30.21 in NNE 3.0 mph 7.0 mph 44% 0.00 in
16:54 57.3 °F 34.4 °F 30.22 in North 6.0 mph 7.0 mph 42% 0.00 in
16:59 57.2 °F 34.9 °F 30.21 in NE 6.0 mph 9.0 mph 43% 0.00 in
17:04 57.1 °F 34.8 °F 30.22 in NNE 4.0 mph 6.0 mph 43% 0.00 in
17:09 57.1 °F 34.2 °F 30.22 in NE 4.0 mph 6.0 mph 42% 0.00 in
17:14 57.0 °F 34.8 °F 30.22 in NE 4.0 mph 5.0 mph 43% 0.00 in
17:19 56.9 °F 34.1 °F 30.22 in NE 3.0 mph 6.0 mph 42% 0.00 in
17:24 56.9 °F 34.1 °F 30.21 in NE 3.0 mph 6.0 mph 42% 0.00 in
17:29 56.6 °F 34.4 °F 30.21 in NNE 3.0 mph 5.0 mph 43% 0.00 in
17:34 56.5 °F 34.9 °F 30.21 in NE 4.0 mph 5.0 mph 44% 0.00 in
17:39 56.3 °F 35.2 °F 30.21 in NNE 3.0 mph 4.0 mph 45% 0.00 in
17:44 56.1 °F 34.5 °F 30.22 in NNE 4.0 mph 8.0 mph 44% 0.00 in
17:49 55.8 °F 34.2 °F 30.22 in NNE 2.0 mph 4.0 mph 44% 0.00 in
17:54 55.4 °F 34.4 °F 30.22 in NNE 1.0 mph 3.0 mph 45% 0.00 in
17:59 55.1 °F 34.2 °F 30.22 in NNE 2.0 mph 4.0 mph 45% 0.00 in
18:04 54.6 °F 33.7 °F 30.22 in NNE 1.0 mph 2.0 mph 45% 0.00 in
18:09 54.1 °F 33.8 °F 30.22 in NE 2.0 mph 3.0 mph 46% 0.00 in
18:14 53.7 °F 34.0 °F 30.22 in NNE 1.0 mph 2.0 mph 47% 0.00 in
18:19 53.4 °F 33.7 °F 30.23 in NNE 2.0 mph 3.0 mph 47% 0.00 in
18:24 53.0 °F 33.8 °F 30.23 in NNE 1.0 mph 2.0 mph 48% 0.00 in
18:29 52.8 °F 34.2 °F 30.23 in NE 2.0 mph 2.0 mph 49% 0.00 in
18:34 52.5 °F 33.9 °F 30.23 in NE 1.0 mph 2.0 mph 49% 0.00 in
18:39 52.3 °F 33.7 °F 30.24 in ENE 2.0 mph 2.0 mph 49% 0.00 in
18:44 52.4 °F 33.8 °F 30.24 in Calm   2.0 mph 49% 0.00 in
18:50 52.4 °F 33.3 °F 30.24 in Calm   2.0 mph 48% 0.00 in
18:55 52.2 °F 33.1 °F 30.25 in Calm   1.0 mph 48% 0.00 in
19:00 52.0 °F 32.9 °F 30.25 in ENE 1.0 mph 2.0 mph 48% 0.00 in
19:05 51.7 °F 33.2 °F 30.24 in ENE 1.0 mph 2.0 mph 49% 0.00 in
19:10 51.3 °F 32.8 °F 30.25 in ENE 2.0 mph 2.0 mph 49% 0.00 in
19:15 51.2 °F 33.2 °F 30.24 in NE 2.0 mph 3.0 mph 50% 0.00 in
19:20 50.9 °F 32.9 °F 30.25 in Calm   2.0 mph 50% 0.00 in
19:25 50.8 °F 32.3 °F 30.25 in ENE 1.0 mph 2.0 mph 49% 0.00 in
19:30 50.9 °F 32.4 °F 30.25 in NE 2.0 mph 3.0 mph 49% 0.00 in
19:35 50.4 °F 32.5 °F 30.24 in NE 1.0 mph 2.0 mph 50% 0.00 in
19:40 50.0 °F 32.6 °F 30.25 in NE 1.0 mph 2.0 mph 51% 0.00 in
19:45 49.9 °F 32.5 °F 30.25 in NE 2.0 mph 3.0 mph 51% 0.00 in
19:50 50.0 °F 32.1 °F 30.25 in NE 1.0 mph 2.0 mph 50% 0.00 in
19:55 50.1 °F 31.7 °F 30.25 in ENE 3.0 mph 3.0 mph 49% 0.00 in
20:00 50.2 °F 31.8 °F 30.26 in East 1.0 mph 2.0 mph 49% 0.00 in
20:05 50.2 °F 31.8 °F 30.26 in East 1.0 mph 2.0 mph 49% 0.00 in
20:10 50.3 °F 31.4 °F 30.26 in Calm   2.0 mph 48% 0.00 in
20:15 50.2 °F 31.8 °F 30.27 in East 2.0 mph 2.0 mph 49% 0.00 in
20:20 50.1 °F 31.7 °F 30.27 in NE 1.0 mph 1.0 mph 49% 0.00 in
20:25 49.5 °F 31.6 °F 30.27 in NE 1.0 mph 1.0 mph 50% 0.00 in
20:30 48.9 °F 31.6 °F 30.27 in NE 2.0 mph 2.0 mph 51% 0.00 in
20:35 48.8 °F 31.5 °F 30.27 in NE 1.0 mph 2.0 mph 51% 0.00 in
20:40 48.9 °F 32.1 °F 30.27 in NE 3.0 mph 3.0 mph 52% 0.00 in
20:45 49.0 °F 32.2 °F 30.26 in NE 2.0 mph 5.0 mph 52% 0.00 in
20:50 48.2 °F 32.3 °F 30.26 in NNE 2.0 mph 4.0 mph 54% 0.00 in
20:55 47.2 °F 32.3 °F 30.25 in NNE 3.0 mph 3.0 mph 56% 0.00 in
21:00 47.0 °F 32.6 °F 30.25 in NNE 1.0 mph 5.0 mph 57% 0.00 in
21:05 47.2 °F 32.8 °F 30.25 in NE 3.0 mph 5.0 mph 57% 0.00 in
21:10 47.2 °F 33.2 °F 30.25 in ENE 2.0 mph 4.0 mph 58% 0.00 in
21:15 47.6 °F 33.6 °F 30.25 in NE 2.0 mph 4.0 mph 58% 0.00 in
21:20 47.7 °F 33.7 °F 30.25 in NNE 4.0 mph 5.0 mph 58% 0.00 in
21:25 47.2 °F 33.6 °F 30.25 in NNW 2.0 mph 4.0 mph 59% 0.00 in
21:30 46.9 °F 33.8 °F 30.25 in NE 3.0 mph 4.0 mph 60% 0.00 in
21:35 46.7 °F 33.6 °F 30.24 in NE 4.0 mph 5.0 mph 60% 0.00 in
21:41 46.5 °F 33.8 °F 30.25 in NE 3.0 mph 4.0 mph 61% 0.00 in
21:46 46.7 °F 33.6 °F 30.24 in NNE 3.0 mph 4.0 mph 60% 0.00 in
21:51 46.7 °F 34.0 °F 30.24 in NE 4.0 mph 7.0 mph 61% 0.00 in
21:56 46.5 °F 33.8 °F 30.24 in NNE 2.0 mph 5.0 mph 61% 0.00 in
22:01 46.3 °F 34.0 °F 30.24 in NNE 4.0 mph 6.0 mph 62% 0.00 in
22:06 46.2 °F 33.9 °F 30.24 in NE 4.0 mph 5.0 mph 62% 0.00 in
22:11 46.1 °F 34.2 °F 30.24 in NE 3.0 mph 4.0 mph 63% 0.00 in
22:16 46.0 °F 34.1 °F 30.25 in NNE 2.0 mph 4.0 mph 63% 0.00 in
22:21 46.1 °F 34.2 °F 30.24 in NNE 3.0 mph 4.0 mph 63% 0.00 in
22:26 46.0 °F 34.1 °F 30.25 in NNE 3.0 mph 4.0 mph 63% 0.00 in
22:31 45.8 °F 34.3 °F 30.25 in ENE 1.0 mph 2.0 mph 64% 0.00 in
22:36 45.8 °F 34.3 °F 30.25 in ENE 1.0 mph 2.0 mph 64% 0.00 in
22:41 46.0 °F 34.5 °F 30.25 in Calm   2.0 mph 64% 0.00 in
22:46 46.0 °F 34.5 °F 30.25 in Calm   1.0 mph 64% 0.00 in
22:51 46.0 °F 34.5 °F 30.26 in ENE 2.0 mph 2.0 mph 64% 0.00 in
22:56 45.9 °F 34.4 °F 30.26 in NE 1.0 mph 2.0 mph 64% 0.00 in
23:01 45.6 °F 34.5 °F 30.26 in NNE 2.0 mph 2.0 mph 65% 0.00 in
23:06 45.3 °F 34.2 °F 30.26 in North 3.0 mph 3.0 mph 65% 0.00 in
23:11 44.7 °F 34.4 °F 30.26 in NNE 1.0 mph 2.0 mph 67% 0.00 in
23:16 44.4 °F 34.5 °F 30.26 in NNE 3.0 mph 4.0 mph 68% 0.00 in
23:21 44.7 °F 34.4 °F 30.26 in North 2.0 mph 4.0 mph 67% 0.00 in
23:26 44.7 °F 34.4 °F 30.26 in NNE 2.0 mph 4.0 mph 67% 0.00 in
23:31 44.5 °F 34.6 °F 30.26 in NE 2.0 mph 4.0 mph 68% 0.00 in
23:36 44.9 °F 35.0 °F 30.26 in NE 4.0 mph 5.0 mph 68% 0.00 in
23:41 45.4 °F 35.1 °F 30.26 in NE 2.0 mph 5.0 mph 67% 0.00 in
23:46 45.4 °F 35.1 °F 30.26 in NE 3.0 mph 6.0 mph 67% 0.00 in
23:52 45.7 °F 35.0 °F 30.25 in ENE 1.0 mph 4.0 mph 66% 0.00 in
23:57 45.7 °F 35.0 °F 30.25 in ENE 2.0 mph 3.0 mph 66% 0.00 in
Compliments of Weather Underground